createdAt,value
2018-08-31T00:00:08.303Z,2.93
2018-08-31T00:02:47.932Z,3.23
2018-08-31T00:05:57.126Z,3.10
2018-08-31T00:08:46.697Z,3.30
2018-08-31T00:13:38.258Z,3.40
2018-08-31T00:16:06.499Z,2.80
2018-08-31T00:18:34.589Z,3.67
2018-08-31T00:21:02.684Z,2.80
2018-08-31T00:23:41.653Z,2.97
2018-08-31T00:28:25.681Z,2.70
2018-08-31T00:31:05.532Z,2.80
2018-08-31T00:34:09.572Z,3.20
2018-08-31T00:36:48.493Z,2.20
2018-08-31T00:39:34.492Z,3.07
2018-08-31T00:42:43.153Z,2.23
2018-08-31T00:45:26.234Z,2.73
2018-08-31T00:47:54.305Z,3.30
2018-08-31T00:50:22.407Z,3.50
2018-08-31T00:52:50.407Z,2.50
2018-08-31T00:55:18.557Z,2.53
2018-08-31T00:57:46.644Z,2.63
2018-08-31T01:00:14.644Z,1.73
2018-08-31T01:02:42.805Z,2.50
2018-08-31T01:05:10.957Z,2.47
2018-08-31T01:07:39.183Z,2.20
2018-08-31T01:10:07.267Z,1.53
2018-08-31T01:12:35.376Z,1.90
2018-08-31T01:15:03.465Z,2.37
2018-08-31T01:17:31.530Z,1.90
2018-08-31T01:19:59.553Z,2.80
2018-08-31T01:22:27.660Z,2.07
2018-08-31T01:24:55.672Z,2.20
2018-08-31T01:27:23.700Z,2.27
2018-08-31T01:29:51.727Z,2.20
2018-08-31T01:32:19.907Z,2.97
2018-08-31T01:34:47.908Z,2.30
2018-08-31T01:37:16.007Z,2.17
2018-08-31T01:39:43.981Z,2.20
2018-08-31T01:42:12.185Z,1.90
2018-08-31T01:44:40.507Z,1.10
2018-08-31T01:47:08.947Z,1.70
2018-08-31T01:49:37.233Z,1.60
2018-08-31T01:52:05.577Z,2.10
2018-08-31T01:54:33.774Z,2.07
2018-08-31T01:57:01.897Z,2.23
2018-08-31T01:59:29.997Z,2.20
2018-08-31T02:01:58.280Z,2.90
2018-08-31T02:04:26.525Z,2.30
2018-08-31T02:06:54.926Z,2.20
2018-08-31T02:09:23.181Z,2.33
2018-08-31T02:11:52.389Z,3.37
2018-08-31T02:14:20.656Z,2.70
2018-08-31T02:16:48.677Z,2.83
2018-08-31T02:19:16.700Z,2.07
2018-08-31T02:21:45.056Z,1.80
2018-08-31T02:24:13.415Z,1.90
2018-08-31T02:26:41.621Z,2.40
2018-08-31T02:29:09.998Z,2.40
2018-08-31T02:31:38.387Z,2.73
2018-08-31T02:34:06.802Z,2.43
2018-08-31T02:36:35.103Z,2.07
2018-08-31T02:39:03.701Z,2.60
2018-08-31T02:41:31.942Z,3.07
2018-08-31T02:44:00.400Z,2.10
2018-08-31T02:46:28.547Z,2.30
2018-08-31T02:48:57.063Z,2.33
2018-08-31T02:51:25.235Z,2.23
2018-08-31T02:53:53.494Z,2.00
2018-08-31T02:56:21.699Z,2.43
2018-08-31T02:58:50.012Z,2.30
2018-08-31T03:01:18.275Z,2.80
2018-08-31T03:03:46.804Z,2.23
2018-08-31T03:06:15.121Z,2.40
2018-08-31T03:08:43.595Z,2.20
2018-08-31T03:11:11.935Z,2.40
2018-08-31T03:13:40.098Z,2.20
2018-08-31T03:16:08.303Z,1.90
2018-08-31T03:18:36.547Z,2.40
2018-08-31T03:21:04.811Z,2.90
2018-08-31T03:23:33.113Z,2.00
2018-08-31T03:26:01.388Z,2.10
2018-08-31T03:28:29.850Z,2.43
2018-08-31T03:30:58.078Z,2.20
2018-08-31T03:33:27.251Z,2.30
2018-08-31T03:35:55.571Z,2.10
2018-08-31T03:38:23.815Z,2.67
2018-08-31T03:40:52.042Z,1.90
2018-08-31T03:43:20.240Z,2.17
2018-08-31T03:45:48.465Z,1.70
2018-08-31T03:48:16.802Z,1.90
2018-08-31T03:50:45.104Z,1.77
2018-08-31T03:53:13.461Z,2.00
2018-08-31T03:55:41.711Z,2.40
2018-08-31T03:58:09.886Z,1.83
2018-08-31T04:00:38.391Z,2.20
2018-08-31T04:03:06.840Z,1.80
2018-08-31T04:05:35.121Z,5.33
2018-08-31T04:08:03.326Z,3.50
2018-08-31T04:10:31.742Z,3.73
2018-08-31T04:13:00.031Z,4.97
2018-08-31T04:15:28.491Z,3.20
2018-08-31T04:17:56.688Z,2.67
2018-08-31T04:20:25.009Z,2.90
2018-08-31T04:22:53.189Z,2.53
2018-08-31T04:25:21.411Z,3.07
2018-08-31T04:27:49.554Z,2.70
2018-08-31T04:30:17.832Z,2.00
2018-08-31T04:32:46.052Z,2.17
2018-08-31T04:35:14.385Z,1.90
2018-08-31T04:37:42.732Z,1.87
2018-08-31T04:40:11.310Z,1.70
2018-08-31T04:42:39.500Z,2.00
2018-08-31T04:45:08.000Z,2.20
2018-08-31T04:47:36.254Z,2.10
2018-08-31T04:50:04.555Z,1.83
2018-08-31T04:52:32.834Z,2.33
2018-08-31T04:55:01.229Z,2.27
2018-08-31T04:57:29.425Z,2.07
2018-08-31T04:59:57.619Z,2.17
2018-08-31T05:02:25.881Z,2.20
2018-08-31T05:04:54.086Z,1.77
2018-08-31T05:07:22.527Z,2.30
2018-08-31T05:09:50.626Z,2.40
2018-08-31T05:12:19.025Z,2.10
2018-08-31T05:14:47.204Z,2.00
2018-08-31T05:17:15.568Z,1.80
2018-08-31T05:19:43.701Z,1.73
2018-08-31T05:22:11.987Z,2.73
2018-08-31T05:24:40.257Z,2.50
2018-08-31T05:27:08.672Z,2.37
2018-08-31T05:29:37.057Z,2.70
2018-08-31T05:32:05.334Z,2.80
2018-08-31T05:34:33.545Z,2.27
2018-08-31T05:37:01.960Z,2.40
2018-08-31T05:39:30.148Z,2.57
2018-08-31T05:41:58.450Z,2.10
2018-08-31T05:44:27.135Z,1.77
2018-08-31T05:46:55.435Z,2.67
2018-08-31T05:49:23.662Z,2.20
2018-08-31T05:51:51.909Z,2.47
2018-08-31T05:54:20.130Z,2.97
2018-08-31T05:56:48.429Z,2.50
2018-08-31T05:59:16.685Z,2.17
2018-08-31T06:01:44.963Z,2.17
2018-08-31T06:04:13.137Z,2.33
2018-08-31T06:06:41.359Z,2.27
2018-08-31T06:09:10.783Z,2.87
2018-08-31T06:11:39.257Z,2.03
2018-08-31T06:14:07.481Z,2.47
2018-08-31T06:16:35.777Z,2.10
2018-08-31T06:19:04.010Z,2.40
2018-08-31T06:21:32.329Z,2.60
2018-08-31T06:24:00.599Z,2.70
2018-08-31T06:26:28.818Z,2.43
2018-08-31T06:28:57.964Z,2.43
2018-08-31T06:31:26.324Z,2.57
2018-08-31T06:33:54.619Z,2.40
2018-08-31T06:36:22.901Z,2.53
2018-08-31T06:38:51.102Z,2.53
2018-08-31T06:41:19.482Z,2.23
2018-08-31T06:43:47.652Z,2.60
2018-08-31T06:46:16.048Z,2.63
2018-08-31T06:48:44.236Z,2.47
2018-08-31T06:51:12.574Z,2.43
2018-08-31T06:53:40.947Z,2.50
2018-08-31T06:56:09.201Z,2.73
2018-08-31T06:58:37.535Z,3.03
2018-08-31T07:01:05.994Z,2.83
2018-08-31T07:03:34.402Z,3.13
2018-08-31T07:06:02.715Z,2.93
2018-08-31T07:08:30.964Z,3.20
2018-08-31T07:10:59.226Z,2.80
2018-08-31T07:13:27.456Z,2.80
2018-08-31T07:15:55.594Z,3.07
2018-08-31T07:18:23.954Z,3.17
2018-08-31T07:20:52.174Z,3.30
2018-08-31T07:23:20.497Z,2.83
2018-08-31T07:25:48.830Z,3.40
2018-08-31T07:28:17.149Z,4.00
2018-08-31T07:30:45.712Z,3.50
2018-08-31T07:33:14.411Z,3.20
2018-08-31T07:35:42.689Z,3.40
2018-08-31T07:38:10.985Z,3.60
2018-08-31T07:40:39.169Z,3.10
2018-08-31T07:43:07.951Z,3.03
2018-08-31T07:45:36.170Z,2.77
2018-08-31T07:48:04.476Z,2.73
2018-08-31T07:50:32.847Z,2.80
2018-08-31T07:53:01.208Z,2.47
2018-08-31T07:55:29.516Z,2.63
2018-08-31T07:57:58.076Z,2.27
2018-08-31T08:00:26.288Z,2.50
2018-08-31T08:02:55.104Z,2.23
2018-08-31T08:05:23.360Z,2.00
2018-08-31T08:07:51.637Z,2.43
2018-08-31T08:10:19.861Z,2.20
2018-08-31T08:12:48.070Z,1.90
2018-08-31T08:15:16.379Z,1.80
2018-08-31T08:17:44.727Z,1.60
2018-08-31T08:20:13.039Z,1.77
2018-08-31T08:22:41.407Z,1.80
2018-08-31T08:25:09.728Z,1.97
2018-08-31T08:27:38.007Z,1.40
2018-08-31T08:30:06.327Z,2.03
2018-08-31T08:32:34.635Z,1.40
2018-08-31T08:35:02.839Z,2.07
2018-08-31T08:37:31.232Z,1.70
2018-08-31T08:39:59.532Z,1.37
2018-08-31T08:42:27.932Z,1.50
2018-08-31T08:44:56.274Z,2.17
2018-08-31T08:47:24.494Z,1.90
2018-08-31T08:49:52.809Z,1.50
2018-08-31T08:52:21.033Z,1.53
2018-08-31T08:54:49.314Z,1.40
2018-08-31T08:57:17.633Z,1.60
2018-08-31T08:59:45.953Z,1.50
2018-08-31T09:02:14.173Z,1.70
2018-08-31T09:04:42.473Z,1.37
2018-08-31T09:07:13.360Z,1.67
2018-08-31T09:09:41.713Z,1.50
2018-08-31T09:12:10.607Z,1.10
2018-08-31T09:14:38.913Z,1.50
2018-08-31T09:17:07.194Z,1.30
2018-08-31T09:19:35.498Z,1.40
2018-08-31T09:22:04.436Z,2.03
2018-08-31T09:24:32.891Z,1.37
2018-08-31T09:27:01.173Z,1.30
2018-08-31T09:29:29.572Z,1.93
2018-08-31T09:32:00.153Z,1.53
2018-08-31T09:34:31.837Z,1.40
2018-08-31T09:37:00.973Z,1.87
2018-08-31T09:39:29.453Z,1.40
2018-08-31T09:41:58.173Z,1.87
2018-08-31T09:44:26.964Z,1.93
2018-08-31T09:46:57.209Z,1.63
2018-08-31T09:49:25.692Z,1.50
2018-08-31T09:51:57.332Z,1.60
2018-08-31T09:54:26.332Z,1.57
2018-08-31T09:56:54.792Z,1.93
2018-08-31T09:59:23.572Z,1.80
2018-08-31T10:01:51.992Z,1.87
2018-08-31T10:26:41.131Z,3.60
2018-08-31T10:29:14.039Z,2.10
2018-08-31T10:31:42.519Z,1.97
2018-08-31T10:34:12.218Z,2.23
2018-08-31T10:36:40.659Z,1.90
2018-08-31T10:39:13.459Z,2.03
2018-08-31T10:41:41.978Z,1.90
2018-08-31T10:44:10.979Z,1.20
2018-08-31T10:46:40.919Z,1.33
2018-08-31T10:49:09.358Z,2.13
2018-08-31T10:51:37.998Z,2.50
2018-08-31T10:54:06.521Z,2.10
2018-08-31T10:59:47.979Z,1.83
2018-08-31T11:02:16.179Z,2.20
2018-08-31T11:04:44.398Z,2.40
2018-08-31T11:07:12.699Z,1.93
2018-08-31T11:09:40.919Z,2.10
2018-08-31T11:12:09.120Z,1.70
2018-08-31T11:14:37.310Z,2.67
2018-08-31T11:17:05.624Z,2.17
2018-08-31T11:19:34.019Z,2.03
2018-08-31T11:22:02.359Z,2.10
2018-08-31T11:24:30.799Z,2.13
2018-08-31T11:26:59.079Z,2.00
2018-08-31T11:29:27.339Z,1.80
2018-08-31T11:31:55.791Z,1.43
2018-08-31T11:34:24.180Z,1.70
2018-08-31T11:36:52.359Z,1.80
2018-08-31T11:39:20.672Z,1.40
2018-08-31T11:41:49.239Z,1.40
2018-08-31T11:44:17.519Z,1.70
2018-08-31T11:46:45.811Z,1.83
2018-08-31T11:49:13.999Z,1.47
2018-08-31T11:51:42.330Z,2.23
2018-08-31T11:54:10.519Z,1.80
2018-08-31T11:56:38.871Z,1.43
2018-08-31T11:59:07.019Z,1.63
2018-08-31T12:01:35.280Z,1.47
2018-08-31T12:04:03.519Z,1.43
2018-08-31T12:06:31.951Z,1.23
2018-08-31T12:09:00.239Z,1.20
2018-08-31T12:11:28.499Z,1.63
2018-08-31T12:13:56.659Z,1.60
2018-08-31T12:16:24.991Z,1.40
2018-08-31T12:21:45.560Z,2.20
2018-08-31T12:24:17.148Z,1.70
2018-08-31T12:30:03.831Z,1.90
2018-08-31T12:32:32.740Z,2.60
2018-08-31T12:35:01.416Z,1.90
2018-08-31T12:37:29.914Z,2.22
2018-08-31T12:39:58.817Z,1.80
2018-08-31T12:42:27.402Z,1.60
2018-08-31T12:44:55.984Z,1.70
2018-08-31T12:47:24.644Z,1.73
2018-08-31T12:50:07.121Z,1.93
2018-08-31T12:52:36.203Z,1.90
2018-08-31T12:55:05.076Z,2.10
2018-08-31T12:57:34.653Z,1.73
2018-08-31T13:00:03.424Z,1.35
2018-08-31T13:02:34.662Z,1.60
2018-08-31T13:05:04.539Z,1.50
2018-08-31T13:07:33.802Z,1.53
2018-08-31T13:10:03.118Z,2.07
2018-08-31T13:12:32.005Z,1.97
2018-08-31T13:15:00.708Z,1.73
2018-08-31T13:17:32.030Z,1.70
2018-08-31T13:20:37.762Z,1.60
2018-08-31T13:23:32.670Z,1.77
2018-08-31T13:26:02.042Z,2.07
2018-08-31T13:28:33.984Z,1.50
2018-08-31T13:31:07.157Z,1.70
2018-08-31T13:33:38.109Z,1.63
2018-08-31T13:36:09.680Z,1.43
2018-08-31T13:38:41.871Z,1.50
2018-08-31T13:41:18.484Z,1.60
2018-08-31T13:43:49.779Z,1.20
2018-08-31T13:46:21.805Z,1.63
2018-08-31T13:49:05.061Z,1.83
2018-08-31T13:51:41.869Z,1.37
2018-08-31T13:54:13.368Z,1.70
2018-08-31T13:57:08.745Z,1.27
2018-08-31T13:59:50.363Z,1.13
2018-08-31T14:02:22.786Z,1.60
2018-08-31T14:04:54.152Z,1.30
2018-08-31T14:07:33.662Z,1.00
2018-08-31T14:10:12.367Z,1.30
2018-08-31T14:12:54.614Z,1.30
2018-08-31T14:15:42.803Z,1.77
2018-08-31T14:18:21.386Z,1.30
2018-08-31T14:23:37.153Z,1.10
2018-08-31T14:26:08.869Z,1.20
2018-08-31T14:28:48.299Z,1.30
2018-08-31T14:31:19.829Z,1.30
2018-08-31T14:33:52.729Z,1.00
2018-08-31T14:36:23.326Z,1.20
2018-08-31T14:38:52.701Z,1.50
2018-08-31T14:41:27.696Z,1.30
2018-08-31T14:43:56.719Z,1.30
2018-08-31T14:46:27.438Z,1.40
2018-08-31T14:48:58.132Z,1.40
2018-08-31T14:51:29.142Z,1.20
2018-08-31T14:54:08.634Z,1.03
2018-08-31T14:56:41.435Z,1.57
2018-08-31T14:59:33.932Z,1.27
2018-08-31T15:02:06.349Z,1.10
2018-08-31T15:04:50.026Z,2.43
2018-08-31T15:07:38.711Z,1.50
2018-08-31T15:25:26.099Z,1.20
2018-08-31T15:27:54.567Z,1.37
2018-08-31T15:30:22.807Z,2.23
2018-08-31T15:32:51.127Z,1.53
2018-08-31T15:35:19.427Z,1.73
2018-08-31T15:37:48.547Z,1.23
2018-08-31T15:43:59.289Z,1.30
2018-08-31T15:48:37.974Z,2.20
2018-08-31T15:51:06.223Z,1.23
2018-08-31T15:53:34.623Z,1.40
2018-08-31T15:56:03.067Z,1.23
2018-08-31T15:58:31.463Z,1.10
2018-08-31T16:00:59.764Z,1.60
2018-08-31T16:03:28.064Z,1.50
2018-08-31T16:05:56.324Z,1.00
2018-08-31T16:08:24.663Z,1.30
2018-08-31T16:10:52.975Z,1.37
2018-08-31T16:13:21.293Z,1.27
2018-08-31T16:15:49.631Z,1.13
2018-08-31T16:18:17.920Z,1.10
2018-08-31T16:20:46.293Z,1.50
2018-08-31T16:23:14.952Z,1.50
2018-08-31T16:25:43.196Z,1.47
2018-08-31T16:28:11.499Z,1.47
2018-08-31T16:30:40.127Z,1.27
2018-08-31T16:33:08.432Z,1.20
2018-08-31T16:35:36.775Z,0.93
2018-08-31T16:38:05.115Z,1.00
2018-08-31T16:40:33.221Z,1.13
2018-08-31T16:43:01.476Z,1.13
2018-08-31T16:45:29.907Z,1.10
2018-08-31T16:47:58.156Z,1.00
2018-08-31T16:50:26.567Z,1.13
2018-08-31T16:52:54.769Z,1.00
2018-08-31T16:55:23.066Z,1.20
2018-08-31T16:57:51.515Z,1.30
2018-08-31T17:00:19.622Z,1.57
2018-08-31T17:02:47.973Z,1.30
2018-08-31T17:05:16.329Z,1.23
2018-08-31T17:07:44.630Z,1.43
2018-08-31T17:10:13.113Z,1.20
2018-08-31T17:12:41.493Z,1.40
2018-08-31T17:15:09.833Z,1.37
2018-08-31T17:17:38.079Z,1.00
2018-08-31T17:20:07.180Z,1.30
2018-08-31T17:22:35.512Z,1.20
2018-08-31T17:25:05.540Z,1.23
2018-08-31T17:27:39.159Z,1.10
2018-08-31T17:30:13.730Z,1.07
2018-08-31T17:47:49.685Z,1.70
2018-08-31T17:50:17.983Z,1.50
2018-08-31T17:52:46.301Z,1.30
2018-08-31T17:55:15.170Z,1.50
2018-08-31T17:57:43.591Z,1.70
2018-08-31T18:00:12.285Z,1.57
2018-08-31T18:02:40.904Z,1.37
2018-08-31T18:05:09.139Z,1.70
2018-08-31T18:07:38.478Z,1.37
2018-08-31T18:10:07.579Z,1.37
2018-08-31T18:12:35.888Z,1.30
2018-08-31T18:15:04.515Z,1.53
2018-08-31T18:17:33.098Z,1.30
2018-08-31T18:22:54.043Z,1.47
2018-08-31T18:25:22.477Z,1.77
2018-08-31T18:27:50.795Z,0.97
2018-08-31T18:30:19.128Z,1.40
2018-08-31T18:32:47.358Z,1.30
2018-08-31T18:35:15.567Z,1.10
2018-08-31T18:37:43.906Z,1.30
2018-08-31T18:40:12.192Z,1.47
2018-08-31T18:42:40.500Z,1.40
2018-08-31T18:45:08.847Z,1.40
2018-08-31T18:53:54.389Z,1.83
2018-08-31T18:56:22.674Z,1.40
2018-08-31T18:58:51.009Z,2.50
2018-08-31T19:01:19.309Z,2.50
2018-08-31T19:03:47.649Z,1.60
2018-08-31T19:06:15.929Z,4.00
2018-08-31T19:08:44.288Z,3.73
2018-08-31T19:11:12.625Z,2.13
2018-08-31T19:13:40.893Z,1.50
2018-08-31T19:16:09.247Z,1.67
2018-08-31T19:18:38.073Z,1.83
2018-08-31T20:19:48.012Z,3.00
2018-08-31T20:22:16.534Z,2.93
2018-08-31T20:24:45.513Z,2.87
2018-08-31T20:27:13.941Z,2.23
2018-08-31T20:29:42.253Z,3.57
2018-08-31T20:32:10.743Z,2.40
2018-08-31T20:34:39.194Z,2.60
2018-08-31T20:37:07.655Z,2.27
2018-08-31T20:39:36.075Z,2.53
2018-08-31T20:42:05.277Z,2.37
2018-08-31T20:44:34.260Z,2.90
2018-08-31T20:47:03.616Z,2.63
2018-08-31T20:49:32.387Z,2.43
2018-08-31T20:52:00.653Z,2.80
2018-08-31T20:54:28.826Z,2.40
2018-08-31T20:56:57.064Z,2.10
2018-08-31T20:59:25.295Z,2.20
2018-08-31T21:01:53.520Z,2.47
2018-08-31T21:04:22.080Z,2.10
2018-08-31T21:06:50.677Z,2.17
2018-08-31T21:09:19.002Z,2.40
2018-08-31T21:11:48.581Z,2.13
2018-08-31T21:14:17.010Z,2.53
2018-08-31T21:17:10.953Z,2.30
2018-08-31T21:19:40.453Z,2.30
2018-08-31T21:22:08.754Z,2.53
2018-08-31T21:27:57.966Z,2.90
2018-08-31T21:34:30.258Z,2.43
2018-08-31T21:37:08.937Z,2.27
2018-08-31T21:39:37.277Z,2.60
2018-08-31T21:42:05.416Z,2.37
2018-08-31T21:44:33.578Z,2.83
2018-08-31T21:47:01.817Z,2.47
2018-08-31T21:49:30.226Z,2.77
2018-08-31T21:51:58.543Z,2.77
2018-08-31T21:54:26.906Z,2.17
2018-08-31T21:56:55.220Z,2.90
2018-08-31T21:59:23.289Z,2.73
2018-08-31T22:01:54.392Z,2.27
2018-08-31T22:04:23.692Z,2.67
2018-08-31T22:07:13.034Z,1.90
2018-08-31T22:12:24.018Z,2.60
2018-08-31T22:14:52.302Z,2.87
2018-08-31T22:17:20.510Z,2.57
2018-08-31T22:19:49.081Z,2.93
2018-08-31T22:22:17.401Z,2.80
2018-08-31T22:24:45.561Z,2.10
2018-08-31T22:27:13.612Z,2.27
2018-08-31T22:29:41.762Z,2.73
2018-08-31T22:32:10.043Z,2.63
2018-08-31T22:34:38.258Z,2.30
2018-08-31T22:37:06.558Z,3.00
2018-08-31T22:39:34.833Z,2.43
2018-08-31T22:42:03.113Z,3.33
2018-08-31T22:44:35.332Z,2.70
2018-08-31T22:47:04.513Z,2.47
2018-08-31T22:49:32.714Z,2.53
2018-08-31T22:52:01.186Z,2.20
2018-08-31T22:54:29.467Z,2.40
2018-08-31T22:56:57.787Z,2.23
2018-08-31T22:59:26.076Z,3.07
2018-08-31T23:01:54.408Z,2.10
2018-08-31T23:04:22.595Z,2.50
2018-08-31T23:06:50.780Z,2.93
2018-08-31T23:09:19.078Z,2.37
2018-08-31T23:11:47.308Z,2.37
2018-08-31T23:14:15.608Z,2.10
2018-08-31T23:16:43.912Z,2.23
2018-08-31T23:19:12.233Z,2.03
2018-08-31T23:21:40.284Z,2.30
2018-08-31T23:24:08.642Z,3.10
2018-08-31T23:26:36.662Z,2.10
2018-08-31T23:29:05.087Z,2.50
2018-08-31T23:31:33.144Z,2.40
2018-08-31T23:34:01.348Z,2.20
2018-08-31T23:36:29.554Z,2.23
2018-08-31T23:38:57.932Z,2.43
2018-08-31T23:41:26.233Z,2.03
2018-08-31T23:43:54.254Z,1.87
2018-08-31T23:46:22.509Z,2.37
2018-08-31T23:48:50.795Z,2.17
2018-08-31T23:51:19.035Z,2.13
2018-08-31T23:53:47.394Z,2.40
2018-08-31T23:56:15.640Z,2.23
2018-08-31T23:58:43.905Z,2.50
